createdAt,value
2017-11-19T00:01:47.520Z,4.40
2017-11-19T00:04:15.107Z,3.83
2017-11-19T00:06:42.700Z,4.43
2017-11-19T00:09:10.309Z,3.65
2017-11-19T00:11:37.932Z,4.07
2017-11-19T00:14:05.500Z,3.87
2017-11-19T00:16:33.846Z,4.18
2017-11-19T00:19:01.444Z,5.35
2017-11-19T00:21:29.019Z,4.65
2017-11-19T00:23:57.450Z,4.05
2017-11-19T00:26:25.030Z,4.18
2017-11-19T00:28:52.601Z,4.07
2017-11-19T00:31:20.179Z,4.35
2017-11-19T00:33:48.554Z,4.45
2017-11-19T00:36:16.119Z,5.50
2017-11-19T00:38:43.672Z,3.90
2017-11-19T00:41:11.293Z,5.70
2017-11-19T00:43:38.861Z,4.25
2017-11-19T00:46:06.433Z,3.95
2017-11-19T00:48:34.015Z,5.00
2017-11-19T00:51:01.599Z,4.68
2017-11-19T00:53:29.951Z,3.78
2017-11-19T00:55:57.562Z,3.92
2017-11-19T00:58:25.153Z,2.87
2017-11-19T01:00:52.703Z,3.70
2017-11-19T01:03:20.341Z,4.20
2017-11-19T01:05:48.685Z,3.60
2017-11-19T01:08:16.266Z,3.90
2017-11-19T01:10:44.621Z,4.47
2017-11-19T01:13:12.206Z,4.20
2017-11-19T01:15:39.792Z,4.40
2017-11-19T01:18:07.418Z,3.53
2017-11-19T01:20:34.984Z,3.58
2017-11-19T01:23:02.566Z,3.97
2017-11-19T01:25:30.913Z,3.50
2017-11-19T01:27:58.484Z,3.75
2017-11-19T01:30:26.046Z,3.50
2017-11-19T01:32:53.658Z,4.15
2017-11-19T01:35:21.213Z,5.30
2017-11-19T01:37:48.785Z,2.70
2017-11-19T01:40:16.385Z,4.35
2017-11-19T01:42:43.956Z,3.70
2017-11-19T01:45:11.512Z,3.45
2017-11-19T01:47:39.094Z,3.62
2017-11-19T01:50:06.671Z,2.92
2017-11-19T01:52:35.023Z,3.53
2017-11-19T01:55:02.617Z,4.07
2017-11-19T01:57:30.963Z,3.58
2017-11-19T01:59:58.517Z,3.25
2017-11-19T02:02:32.725Z,3.95
2017-11-19T02:05:00.303Z,3.10
2017-11-19T02:07:27.889Z,3.85
2017-11-19T02:09:56.256Z,3.53
2017-11-19T02:12:23.848Z,3.62
2017-11-19T02:14:51.438Z,3.22
2017-11-19T02:17:19.061Z,3.87
2017-11-19T02:19:47.404Z,3.72
2017-11-19T02:22:14.969Z,3.50
2017-11-19T02:24:42.576Z,3.37
2017-11-19T02:27:10.913Z,3.03
2017-11-19T02:29:38.620Z,3.08
2017-11-19T02:32:06.962Z,2.85
2017-11-19T02:34:34.514Z,3.20
2017-11-19T02:37:02.084Z,2.92
2017-11-19T02:39:29.687Z,2.53
2017-11-19T02:41:57.265Z,2.58
2017-11-19T02:44:24.845Z,2.85
2017-11-19T02:46:52.450Z,2.03
2017-11-19T02:49:20.029Z,2.65
2017-11-19T02:51:48.347Z,2.10
2017-11-19T02:54:15.937Z,2.37
2017-11-19T02:56:43.497Z,2.67
2017-11-19T02:59:11.082Z,2.40
2017-11-19T03:01:38.686Z,2.47
2017-11-19T03:04:06.282Z,2.30
2017-11-19T03:06:33.835Z,2.83
2017-11-19T03:09:01.433Z,2.78
2017-11-19T03:11:29.026Z,2.95
2017-11-19T03:13:56.592Z,2.15
2017-11-19T03:16:24.189Z,2.30
2017-11-19T03:18:51.792Z,2.35
2017-11-19T03:21:20.129Z,2.87
2017-11-19T03:23:47.732Z,2.20
2017-11-19T03:26:16.090Z,2.30
2017-11-19T03:28:43.667Z,2.80
2017-11-19T03:31:11.269Z,2.97
2017-11-19T03:33:38.860Z,2.80
2017-11-19T03:36:06.434Z,2.15
2017-11-19T03:38:34.044Z,2.97
2017-11-19T03:41:02.381Z,3.25
2017-11-19T03:43:29.952Z,2.87
2017-11-19T03:45:57.560Z,3.50
2017-11-19T03:48:25.133Z,3.55
2017-11-19T03:50:52.696Z,3.60
2017-11-19T03:53:20.310Z,3.33
2017-11-19T03:55:47.888Z,3.83
2017-11-19T03:58:16.221Z,4.43
2017-11-19T04:00:43.824Z,4.40
2017-11-19T04:03:12.155Z,3.30
2017-11-19T04:05:39.749Z,4.78
2017-11-19T04:08:07.330Z,4.37
2017-11-19T04:10:35.651Z,4.28
2017-11-19T04:13:03.230Z,3.75
2017-11-19T04:15:30.834Z,4.50
2017-11-19T04:17:59.171Z,5.50
2017-11-19T04:20:26.732Z,3.83
2017-11-19T04:22:54.331Z,5.00
2017-11-19T04:25:22.676Z,4.07
2017-11-19T04:27:50.268Z,4.12
2017-11-19T04:30:17.860Z,4.03
2017-11-19T04:32:45.456Z,4.03
2017-11-19T04:35:13.028Z,4.05
2017-11-19T04:37:40.626Z,4.15
2017-11-19T04:40:08.947Z,3.95
2017-11-19T04:42:36.513Z,4.12
2017-11-19T04:45:04.134Z,4.10
2017-11-19T04:47:32.468Z,3.50
2017-11-19T04:50:00.036Z,3.70
2017-11-19T04:52:27.618Z,3.90
2017-11-19T04:54:55.165Z,4.37
2017-11-19T04:57:22.746Z,3.53
2017-11-19T04:59:50.359Z,4.12
2017-11-19T05:02:17.946Z,3.12
2017-11-19T05:04:45.515Z,3.75
2017-11-19T05:07:13.090Z,3.20
2017-11-19T05:09:40.656Z,3.10
2017-11-19T05:12:08.236Z,3.17
2017-11-19T05:14:36.619Z,3.60
2017-11-19T05:17:04.960Z,3.78
2017-11-19T05:19:32.540Z,2.95
2017-11-19T05:22:00.150Z,3.15
2017-11-19T05:24:27.739Z,2.70
2017-11-19T05:26:55.294Z,3.20
2017-11-19T05:29:22.906Z,2.65
2017-11-19T05:31:51.237Z,2.70
2017-11-19T05:34:18.816Z,2.17
2017-11-19T05:36:46.420Z,3.20
2017-11-19T05:39:14.773Z,3.30
2017-11-19T05:41:42.345Z,3.08
2017-11-19T05:44:09.973Z,3.40
2017-11-19T05:46:37.540Z,3.75
2017-11-19T05:49:05.100Z,3.90
2017-11-19T05:51:32.710Z,3.70
2017-11-19T05:54:01.044Z,3.50
2017-11-19T05:56:28.619Z,3.85
2017-11-19T05:58:56.232Z,3.62
2017-11-19T06:01:23.823Z,2.58
2017-11-19T06:03:51.393Z,3.35
2017-11-19T06:06:19.008Z,3.45
2017-11-19T06:08:47.345Z,2.65
2017-11-19T06:11:15.684Z,2.40
2017-11-19T06:13:43.288Z,2.65
2017-11-19T06:16:10.855Z,2.50
2017-11-19T06:18:38.439Z,2.60
2017-11-19T06:21:06.816Z,2.55
2017-11-19T06:23:34.379Z,2.87
2017-11-19T06:26:01.953Z,2.12
2017-11-19T06:28:30.295Z,2.20
2017-11-19T06:30:57.869Z,2.55
2017-11-19T06:33:25.418Z,2.15
2017-11-19T06:35:53.009Z,1.85
2017-11-19T06:38:21.349Z,1.70
2017-11-19T06:40:48.928Z,1.80
2017-11-19T06:43:16.531Z,2.25
2017-11-19T06:45:44.874Z,2.00
2017-11-19T06:48:12.444Z,1.87
2017-11-19T06:50:40.062Z,1.83
2017-11-19T06:53:07.633Z,1.90
2017-11-19T06:55:35.210Z,2.00
2017-11-19T06:58:02.874Z,1.77
2017-11-19T07:00:30.444Z,1.60
2017-11-19T07:02:58.022Z,1.60
2017-11-19T07:05:25.617Z,1.95
2017-11-19T07:07:53.967Z,1.70
2017-11-19T07:10:22.340Z,1.73
2017-11-19T07:12:49.913Z,1.75
2017-11-19T07:15:17.502Z,1.30
2017-11-19T07:17:45.104Z,2.03
2017-11-19T07:20:12.671Z,1.58
2017-11-19T07:22:40.245Z,1.75
2017-11-19T07:25:07.828Z,1.37
2017-11-19T07:27:35.400Z,1.40
2017-11-19T07:30:03.762Z,1.40
2017-11-19T07:32:31.394Z,1.15
2017-11-19T07:34:58.957Z,1.58
2017-11-19T07:37:26.560Z,1.42
2017-11-19T07:39:54.900Z,1.52
2017-11-19T07:42:22.494Z,1.42
2017-11-19T07:44:50.111Z,1.50
2017-11-19T07:47:17.709Z,1.80
2017-11-19T07:49:45.327Z,1.65
2017-11-19T07:52:12.893Z,1.23
2017-11-19T07:54:40.466Z,1.62
2017-11-19T07:57:08.014Z,1.35
2017-11-19T07:59:35.632Z,1.77
2017-11-19T08:02:03.208Z,1.85
2017-11-19T08:04:31.549Z,2.30
2017-11-19T08:06:59.136Z,2.45
2017-11-19T08:09:26.723Z,1.40
2017-11-19T08:11:55.122Z,1.50
2017-11-19T08:14:22.702Z,1.58
2017-11-19T08:16:50.263Z,2.20
2017-11-19T08:19:17.833Z,1.52
2017-11-19T08:21:45.418Z,1.75
2017-11-19T08:24:12.985Z,1.92
2017-11-19T08:26:40.577Z,1.95
2017-11-19T08:29:08.913Z,2.05
2017-11-19T08:31:36.485Z,1.77
2017-11-19T08:34:04.078Z,1.80
2017-11-19T08:36:32.408Z,2.33
2017-11-19T08:38:59.977Z,2.15
2017-11-19T08:41:27.586Z,1.50
2017-11-19T08:43:55.146Z,1.30
2017-11-19T08:46:23.507Z,2.65
2017-11-19T08:48:51.068Z,1.95
2017-11-19T08:51:18.671Z,1.77
2017-11-19T08:53:46.244Z,2.00
2017-11-19T08:56:13.851Z,1.95
2017-11-19T08:58:41.443Z,1.70
2017-11-19T09:01:09.781Z,1.55
2017-11-19T09:03:37.373Z,1.65
2017-11-19T09:06:05.704Z,1.92
2017-11-19T09:08:33.275Z,1.55
2017-11-19T09:11:00.891Z,1.87
2017-11-19T09:13:28.462Z,1.70
2017-11-19T09:15:56.018Z,1.55
2017-11-19T09:18:23.615Z,1.55
2017-11-19T09:20:51.172Z,1.52
2017-11-19T09:23:18.736Z,2.03
2017-11-19T09:25:46.348Z,1.37
2017-11-19T09:28:14.680Z,1.20
2017-11-19T09:30:42.248Z,1.75
2017-11-19T09:33:09.858Z,2.12
2017-11-19T09:35:38.216Z,2.53
2017-11-19T09:38:05.787Z,1.70
2017-11-19T09:40:35.111Z,1.40
2017-11-19T09:43:03.447Z,2.70
2017-11-19T09:45:30.997Z,1.48
2017-11-19T09:47:58.588Z,1.62
2017-11-19T09:50:26.151Z,1.42
2017-11-19T09:52:53.716Z,1.35
2017-11-19T09:55:21.312Z,2.15
2017-11-19T09:57:48.894Z,1.70
2017-11-19T10:00:16.489Z,2.22
2017-11-19T10:02:44.084Z,1.98
2017-11-19T10:05:12.426Z,2.65
2017-11-19T10:07:40.020Z,1.92
2017-11-19T10:10:08.380Z,2.20
2017-11-19T10:12:35.952Z,2.40
2017-11-19T10:15:04.279Z,2.08
2017-11-19T10:17:31.888Z,1.70
2017-11-19T10:20:00.237Z,2.55
2017-11-19T10:22:27.812Z,2.97
2017-11-19T10:24:55.390Z,2.37
2017-11-19T10:27:22.958Z,2.92
2017-11-19T10:29:51.299Z,2.00
2017-11-19T10:32:18.945Z,3.15
2017-11-19T10:34:46.512Z,2.53
2017-11-19T10:37:14.109Z,2.22
2017-11-19T10:39:41.710Z,2.22
2017-11-19T10:42:10.042Z,2.60
2017-11-19T10:44:37.626Z,2.33
2017-11-19T10:47:05.282Z,2.22
2017-11-19T10:49:32.876Z,1.70
2017-11-19T10:52:01.210Z,1.50
2017-11-19T10:54:28.773Z,2.97
2017-11-19T10:56:56.361Z,2.10
2017-11-19T10:59:23.975Z,1.80
2017-11-19T11:01:51.546Z,2.20
2017-11-19T11:04:19.117Z,2.87
2017-11-19T11:06:46.713Z,1.50
2017-11-19T11:09:14.275Z,1.87
2017-11-19T11:11:42.622Z,2.05
2017-11-19T11:14:10.203Z,2.10
2017-11-19T11:16:37.786Z,2.00
2017-11-19T11:19:06.149Z,2.10
2017-11-19T11:21:33.710Z,1.87
2017-11-19T11:24:01.263Z,2.47
2017-11-19T11:26:28.863Z,2.15
2017-11-19T11:28:57.191Z,2.22
2017-11-19T11:31:24.764Z,2.05
2017-11-19T11:33:53.132Z,2.42
2017-11-19T11:36:20.710Z,2.33
2017-11-19T11:38:48.309Z,1.75
2017-11-19T11:41:16.675Z,2.10
2017-11-19T11:43:45.013Z,2.10
2017-11-19T11:46:12.599Z,2.50
2017-11-19T11:48:40.173Z,2.50
2017-11-19T11:51:07.744Z,2.30
2017-11-19T11:53:36.074Z,2.47
2017-11-19T11:56:03.672Z,2.20
2017-11-19T11:58:31.237Z,1.95
2017-11-19T12:00:58.786Z,2.17
2017-11-19T12:03:26.381Z,2.30
2017-11-19T12:05:54.719Z,2.37
2017-11-19T12:08:22.308Z,2.20
2017-11-19T12:10:49.875Z,2.42
2017-11-19T12:13:18.226Z,2.17
2017-11-19T12:15:45.788Z,2.55
2017-11-19T12:18:13.365Z,2.42
2017-11-19T12:20:40.935Z,2.15
2017-11-19T12:23:08.500Z,2.15
2017-11-19T12:25:36.096Z,1.48
2017-11-19T12:28:03.661Z,2.05
2017-11-19T12:30:31.276Z,2.70
2017-11-19T12:32:58.863Z,1.60
2017-11-19T12:35:27.247Z,2.33
2017-11-19T12:37:55.566Z,1.98
2017-11-19T12:40:23.128Z,1.90
2017-11-19T12:42:50.718Z,2.33
2017-11-19T12:45:18.274Z,2.75
2017-11-19T12:47:45.886Z,1.55
2017-11-19T12:50:13.445Z,2.08
2017-11-19T12:52:41.098Z,2.22
2017-11-19T12:55:09.475Z,2.75
2017-11-19T12:57:37.816Z,1.65
2017-11-19T13:00:05.401Z,1.60
2017-11-19T13:02:33.013Z,2.10
2017-11-19T13:05:00.588Z,2.33
2017-11-19T13:07:28.182Z,1.80
2017-11-19T13:09:55.764Z,1.45
2017-11-19T13:12:24.110Z,1.75
2017-11-19T13:14:51.708Z,1.70
2017-11-19T13:17:20.044Z,2.12
2017-11-19T13:19:47.637Z,1.65
2017-11-19T13:22:15.227Z,1.00
2017-11-19T13:24:42.822Z,1.48
2017-11-19T13:27:10.385Z,2.03
2017-11-19T13:29:38.190Z,1.50
2017-11-19T13:32:05.838Z,2.17
2017-11-19T13:34:33.426Z,1.75
2017-11-19T13:37:01.782Z,2.08
2017-11-19T13:39:29.366Z,1.62
2017-11-19T13:41:57.726Z,1.80
2017-11-19T13:44:25.340Z,1.65
2017-11-19T13:46:52.924Z,1.40
2017-11-19T13:49:20.592Z,1.55
2017-11-19T13:51:48.181Z,2.40
2017-11-19T13:54:15.753Z,1.77
2017-11-19T13:56:43.355Z,1.67
2017-11-19T13:59:10.943Z,1.90
2017-11-19T14:01:38.547Z,1.42
2017-11-19T14:04:06.141Z,1.00
2017-11-19T14:06:33.733Z,1.15
2017-11-19T14:09:01.305Z,1.87
2017-11-19T14:11:28.888Z,1.45
2017-11-19T14:13:56.446Z,2.30
2017-11-19T14:16:24.016Z,1.60
2017-11-19T14:18:51.585Z,1.23
2017-11-19T14:21:19.935Z,2.22
2017-11-19T14:23:47.502Z,1.80
2017-11-19T14:26:15.072Z,2.58
2017-11-19T14:28:42.670Z,1.33
2017-11-19T14:31:11.009Z,2.00
2017-11-19T14:33:38.583Z,2.10
2017-11-19T14:36:06.176Z,1.73
2017-11-19T14:38:34.512Z,2.55
2017-11-19T14:41:02.086Z,1.30
2017-11-19T14:43:29.638Z,1.30
2017-11-19T14:45:57.251Z,1.65
2017-11-19T14:48:24.808Z,1.40
2017-11-19T14:50:52.388Z,1.92
2017-11-19T14:53:20.050Z,1.45
2017-11-19T14:55:47.633Z,1.60
2017-11-19T14:58:15.238Z,2.05
2017-11-19T15:00:43.597Z,1.40
2017-11-19T15:03:11.188Z,1.73
2017-11-19T15:05:39.538Z,2.45
2017-11-19T15:08:07.129Z,2.05
2017-11-19T15:10:35.477Z,1.50
2017-11-19T15:13:03.049Z,1.50
2017-11-19T15:15:30.655Z,1.58
2017-11-19T15:17:58.215Z,1.75
2017-11-19T15:20:25.777Z,1.20
2017-11-19T15:22:53.382Z,1.75
2017-11-19T15:25:20.968Z,1.65
2017-11-19T15:27:48.540Z,1.50
2017-11-19T15:30:16.862Z,1.00
2017-11-19T15:32:44.452Z,1.90
2017-11-19T15:35:12.010Z,1.70
2017-11-19T15:37:39.613Z,1.80
2017-11-19T15:40:07.962Z,1.75
2017-11-19T15:42:36.235Z,2.10
2017-11-19T15:45:03.814Z,1.65
2017-11-19T15:47:31.374Z,1.58
2017-11-19T15:49:58.949Z,2.45
2017-11-19T15:52:27.317Z,2.40
2017-11-19T15:54:54.896Z,2.83
2017-11-19T15:57:24.049Z,2.03
2017-11-19T15:59:51.642Z,2.30
2017-11-19T16:02:19.222Z,2.35
2017-11-19T16:04:47.586Z,1.70
2017-11-19T16:07:15.175Z,1.95
2017-11-19T16:09:43.556Z,2.10
2017-11-19T16:12:11.878Z,2.72
2017-11-19T16:14:39.467Z,2.20
2017-11-19T16:17:07.884Z,1.58
2017-11-19T16:19:35.481Z,2.00
2017-11-19T16:22:03.046Z,1.87
2017-11-19T16:24:30.630Z,2.62
2017-11-19T16:26:58.214Z,2.30
2017-11-19T16:29:26.530Z,2.50
2017-11-19T16:31:54.130Z,2.30
2017-11-19T16:34:21.696Z,2.08
2017-11-19T16:36:49.268Z,2.05
2017-11-19T16:39:16.851Z,2.72
2017-11-19T16:41:45.213Z,2.25
2017-11-19T16:44:12.803Z,2.08
2017-11-19T16:46:40.399Z,2.58
2017-11-19T16:49:08.000Z,2.30
2017-11-19T16:51:35.569Z,2.00
2017-11-19T16:54:03.920Z,2.25
2017-11-19T16:56:31.516Z,2.37
2017-11-19T16:58:59.857Z,1.98
2017-11-19T17:01:27.460Z,3.22
2017-11-19T17:03:55.815Z,1.75
2017-11-19T17:06:23.388Z,1.90
2017-11-19T17:08:51.012Z,1.60
2017-11-19T17:11:18.598Z,2.17
2017-11-19T17:13:46.204Z,2.60
2017-11-19T17:16:14.544Z,1.52
2017-11-19T17:18:42.108Z,1.58
2017-11-19T17:21:09.695Z,1.67
2017-11-19T17:23:38.019Z,1.75
2017-11-19T17:26:05.598Z,2.20
2017-11-19T17:28:33.214Z,2.08
2017-11-19T17:31:01.548Z,2.50
2017-11-19T17:33:29.158Z,1.45
2017-11-19T17:36:02.448Z,1.77
2017-11-19T17:38:30.792Z,1.50
2017-11-19T17:40:58.356Z,1.87
2017-11-19T17:43:25.919Z,1.75
2017-11-19T17:45:53.498Z,2.03
2017-11-19T17:48:21.840Z,1.65
2017-11-19T17:50:49.474Z,2.35
2017-11-19T17:53:17.072Z,2.45
2017-11-19T17:55:44.654Z,1.80
2017-11-19T17:58:12.238Z,1.85
2017-11-19T18:00:40.606Z,2.00
2017-11-19T18:03:08.191Z,1.95
2017-11-19T18:05:35.799Z,2.78
2017-11-19T18:08:03.374Z,3.30
2017-11-19T18:10:30.973Z,2.70
2017-11-19T18:12:59.344Z,2.10
2017-11-19T18:15:27.678Z,1.67
2017-11-19T18:17:55.238Z,2.05
2017-11-19T18:20:22.850Z,2.08
2017-11-19T18:22:51.194Z,2.62
2017-11-19T18:25:18.778Z,2.20
2017-11-19T18:27:47.183Z,1.95
2017-11-19T18:30:15.502Z,2.45
2017-11-19T18:32:43.130Z,2.78
2017-11-19T18:35:11.466Z,2.10
2017-11-19T18:37:39.068Z,2.50
2017-11-19T18:40:06.671Z,3.20
2017-11-19T18:42:34.221Z,2.85
2017-11-19T18:45:01.851Z,2.55
2017-11-19T18:47:30.215Z,2.17
2017-11-19T18:49:57.819Z,2.30
2017-11-19T18:52:25.430Z,2.12
2017-11-19T18:54:53.041Z,2.00
2017-11-19T18:57:20.634Z,2.97
2017-11-19T18:59:48.220Z,2.08
2017-11-19T19:02:15.872Z,2.90
2017-11-19T19:04:43.511Z,2.65
2017-11-19T19:07:11.091Z,2.30
2017-11-19T19:09:38.688Z,2.05
2017-11-19T19:12:07.082Z,2.92
2017-11-19T19:14:34.711Z,2.45
2017-11-19T19:17:02.299Z,2.53
2017-11-19T19:19:30.635Z,2.53
2017-11-19T19:21:58.225Z,2.22
2017-11-19T19:24:25.824Z,2.62
2017-11-19T19:26:53.391Z,2.20
2017-11-19T19:29:20.991Z,2.30
2017-11-19T19:31:48.576Z,2.47
2017-11-19T19:34:16.963Z,2.55
2017-11-19T19:36:44.559Z,2.90
2017-11-19T19:39:12.145Z,2.20
2017-11-19T19:41:39.759Z,1.98
2017-11-19T19:44:08.123Z,2.92
2017-11-19T19:46:35.759Z,2.55
2017-11-19T19:49:03.344Z,2.97
2017-11-19T19:51:30.943Z,3.10
2017-11-19T19:53:59.354Z,2.58
2017-11-19T19:56:26.957Z,2.25
2017-11-19T19:58:54.549Z,2.87
2017-11-19T20:01:22.913Z,2.40
2017-11-19T20:03:51.257Z,3.03
2017-11-19T20:06:18.859Z,2.22
2017-11-19T20:08:47.221Z,2.15
2017-11-19T20:11:14.775Z,2.42
2017-11-19T20:13:42.368Z,2.62
2017-11-19T20:16:10.724Z,2.45
2017-11-19T20:18:38.307Z,2.30
2017-11-19T20:21:06.682Z,2.87
2017-11-19T20:23:35.035Z,2.70
2017-11-19T20:26:02.628Z,2.58
2017-11-19T20:28:31.011Z,2.40
2017-11-19T20:30:59.365Z,2.05
2017-11-19T20:33:26.960Z,2.53
2017-11-19T20:35:55.300Z,2.05
2017-11-19T20:38:22.945Z,2.30
2017-11-19T20:40:50.559Z,2.08
2017-11-19T20:43:18.917Z,2.20
2017-11-19T20:45:46.509Z,2.53
2017-11-19T20:48:14.872Z,2.78
2017-11-19T20:50:42.426Z,3.58
2017-11-19T20:53:10.061Z,1.70
2017-11-19T20:55:37.664Z,2.70
2017-11-19T20:58:05.258Z,3.20
2017-11-19T21:00:33.492Z,2.20
2017-11-19T21:03:01.074Z,1.77
2017-11-19T21:05:29.442Z,1.55
2017-11-19T21:07:57.011Z,2.00
2017-11-19T21:10:24.584Z,2.17
2017-11-19T21:12:52.948Z,2.72
2017-11-19T21:15:20.657Z,1.70
2017-11-19T21:17:48.223Z,2.67
2017-11-19T21:20:15.835Z,1.85
2017-11-19T21:22:43.400Z,1.75
2017-11-19T21:25:10.990Z,1.60
2017-11-19T21:27:38.592Z,2.60
2017-11-19T21:30:06.182Z,2.60
2017-11-19T21:32:34.570Z,2.20
2017-11-19T21:35:02.159Z,2.17
2017-11-19T21:37:29.716Z,2.80
2017-11-19T21:39:58.099Z,2.05
2017-11-19T21:42:26.436Z,2.60
2017-11-19T21:44:54.017Z,2.75
2017-11-19T21:47:21.598Z,1.87
2017-11-19T21:49:49.941Z,3.10
2017-11-19T21:52:17.516Z,2.78
2017-11-19T21:54:45.118Z,2.25
2017-11-19T21:57:12.707Z,2.72
2017-11-19T21:59:40.304Z,3.00
2017-11-19T22:02:07.853Z,2.62
2017-11-19T22:04:35.465Z,3.30
2017-11-19T22:07:03.058Z,3.35
2017-11-19T22:09:30.642Z,2.58
2017-11-19T22:11:58.239Z,2.85
2017-11-19T22:14:26.569Z,1.98
2017-11-19T22:16:54.176Z,3.35
2017-11-19T22:19:22.511Z,2.85
2017-11-19T22:21:50.087Z,3.78
2017-11-19T22:24:17.659Z,3.30
2017-11-19T22:26:45.274Z,3.37
2017-11-19T22:29:12.851Z,3.03
2017-11-19T22:31:40.421Z,3.50
2017-11-19T22:34:08.005Z,2.08
2017-11-19T22:36:35.554Z,2.83
2017-11-19T22:39:03.183Z,3.17
2017-11-19T22:41:30.755Z,2.83
2017-11-19T22:43:58.299Z,2.75
2017-11-19T22:46:25.878Z,3.45
2017-11-19T22:48:53.452Z,2.05
2017-11-19T22:51:21.063Z,3.35
2017-11-19T22:53:49.415Z,2.95
2017-11-19T22:56:17.004Z,2.40
2017-11-19T22:58:45.360Z,2.12
2017-11-19T23:01:12.942Z,2.47
2017-11-19T23:03:41.301Z,2.83
2017-11-19T23:06:08.887Z,3.22
2017-11-19T23:08:36.460Z,4.47
2017-11-19T23:11:04.792Z,2.78
2017-11-19T23:13:32.361Z,2.83
2017-11-19T23:15:59.953Z,2.95
2017-11-19T23:18:28.311Z,3.60
2017-11-19T23:20:55.882Z,2.85
2017-11-19T23:23:23.442Z,3.12
2017-11-19T23:25:51.048Z,2.85
2017-11-19T23:28:18.616Z,3.80
2017-11-19T23:30:46.173Z,3.45
2017-11-19T23:33:13.782Z,3.05
2017-11-19T23:35:41.395Z,2.97
2017-11-19T23:38:08.987Z,2.70
2017-11-19T23:40:36.593Z,2.83
2017-11-19T23:43:04.928Z,2.62
2017-11-19T23:45:32.529Z,3.03
2017-11-19T23:48:00.864Z,2.37
2017-11-19T23:50:28.428Z,2.22
2017-11-19T23:52:56.006Z,1.62
2017-11-19T23:55:23.576Z,2.75
2017-11-19T23:57:51.144Z,2.35
